createdAt,value
2023-09-15T00:00:39.707Z,100468.53
2023-09-15T00:05:42.501Z,100455.22
2023-09-15T00:10:47.423Z,100435.28
2023-09-15T00:15:52.932Z,100411.13
2023-09-15T00:20:55.858Z,100376.34
2023-09-15T00:26:05.058Z,100359.66
2023-09-15T00:31:10.239Z,100340.88
2023-09-15T00:36:13.017Z,100319.97
2023-09-15T00:41:15.992Z,100304.88
2023-09-15T00:46:20.680Z,100287.59
2023-09-15T00:51:23.966Z,100266.75
2023-09-15T00:56:26.955Z,100238.72
2023-09-15T01:01:32.634Z,100216.31
2023-09-15T01:06:35.912Z,100198.44
2023-09-15T01:11:40.878Z,100178.00
2023-09-15T01:16:48.900Z,100151.88
2023-09-15T01:22:05.712Z,100129.78
2023-09-15T01:27:15.710Z,100104.06
2023-09-15T01:32:21.368Z,100091.53
2023-09-15T01:37:25.066Z,100073.03
2023-09-15T01:42:27.968Z,100049.72
2023-09-15T01:47:33.224Z,100020.19
2023-09-15T01:52:36.218Z,100009.38
2023-09-15T01:57:38.991Z,99985.88
2023-09-15T02:02:43.224Z,99976.44
2023-09-15T02:07:46.042Z,99952.66
2023-09-15T02:12:48.828Z,99928.19
2023-09-15T02:17:53.633Z,99915.19
2023-09-15T02:22:58.256Z,99890.66
2023-09-15T02:28:01.050Z,99876.94
2023-09-15T02:33:05.551Z,99864.31
2023-09-15T02:38:08.380Z,99814.63
2023-09-15T02:43:11.466Z,99802.03
2023-09-15T02:48:15.754Z,99782.47
2023-09-15T02:53:19.016Z,99751.03
2023-09-15T02:58:23.402Z,99700.25
2023-09-15T03:03:27.841Z,99679.13
2023-09-15T03:08:30.991Z,99657.63
2023-09-15T03:13:34.068Z,99641.00
2023-09-15T03:18:39.248Z,99607.41
2023-09-15T03:23:42.712Z,99588.00
2023-09-15T03:28:45.878Z,99562.44
2023-09-15T03:33:50.502Z,99535.25
2023-09-15T03:38:55.147Z,99520.03
2023-09-15T03:44:00.509Z,99496.63
2023-09-15T03:49:05.726Z,99492.03
2023-09-15T03:54:09.356Z,99480.66
2023-09-15T03:59:12.834Z,99411.84
2023-09-15T04:04:17.200Z,99383.06
2023-09-15T04:09:20.520Z,99367.03
2023-09-15T04:14:23.300Z,99326.88
2023-09-15T04:19:27.435Z,99328.16
2023-09-15T04:24:30.448Z,99272.94
2023-09-15T04:29:33.255Z,99262.25
2023-09-15T04:34:37.790Z,99224.53
2023-09-15T04:39:40.739Z,99210.09
2023-09-15T04:44:44.566Z,99173.44
2023-09-15T04:49:49.007Z,99141.81
2023-09-15T04:54:52.260Z,99129.41
2023-09-15T04:59:55.380Z,99095.13
2023-09-15T05:04:59.700Z,99075.69
2023-09-15T05:10:03.072Z,99036.28
2023-09-15T05:15:09.245Z,99025.59
2023-09-15T05:20:15.684Z,98998.50
2023-09-15T05:25:18.866Z,98969.53
2023-09-15T05:30:21.872Z,98933.50
2023-09-15T05:35:27.093Z,98850.25
2023-09-15T05:40:29.977Z,98831.09
2023-09-15T05:45:33.643Z,98818.69
2023-09-15T05:50:37.733Z,98788.97
2023-09-15T05:55:40.484Z,98760.09
2023-09-15T06:00:43.725Z,98738.22
2023-09-15T06:05:47.904Z,98752.25
2023-09-15T06:10:50.663Z,98721.56
2023-09-15T06:15:53.765Z,98678.66
2023-09-15T06:20:57.899Z,98659.47
2023-09-15T06:26:00.733Z,98645.47
2023-09-15T06:31:04.116Z,98641.16
2023-09-15T06:36:08.496Z,98643.91
2023-09-15T06:41:11.286Z,98654.59
2023-09-15T06:46:14.413Z,98639.69
2023-09-15T06:51:18.583Z,98634.47
2023-09-15T06:56:21.374Z,98631.88
2023-09-15T07:01:24.219Z,98637.22
2023-09-15T07:06:28.432Z,98657.50
2023-09-15T07:11:31.266Z,98676.94
2023-09-15T07:16:34.093Z,98672.63
2023-09-15T07:21:41.849Z,98707.91
2023-09-15T07:26:44.677Z,98756.50
2023-09-15T07:31:47.729Z,98781.25
2023-09-15T07:36:52.221Z,98803.34
2023-09-15T07:41:54.982Z,98806.13
2023-09-15T07:46:57.809Z,98842.31
2023-09-15T07:52:02.169Z,98877.63
2023-09-15T07:57:05.647Z,98908.59
2023-09-15T08:02:08.854Z,98944.81
2023-09-15T08:07:13.013Z,98977.63
2023-09-15T08:12:17.744Z,99033.34
2023-09-15T08:17:33.097Z,99055.56
2023-09-15T08:22:39.665Z,99121.00
2023-09-15T08:27:45.346Z,99209.38
2023-09-15T08:32:48.160Z,99298.72
2023-09-15T08:37:52.332Z,99321.09
2023-09-15T08:42:55.194Z,99375.16
2023-09-15T08:48:00.763Z,99448.63
2023-09-15T08:53:05.645Z,99481.59
2023-09-15T08:58:09.249Z,99534.06
2023-09-15T09:03:14.111Z,99621.84
2023-09-15T09:08:18.683Z,99694.63
2023-09-15T09:13:33.719Z,99752.34
2023-09-15T09:18:56.168Z,99806.41
2023-09-15T09:24:00.763Z,99856.41
2023-09-15T09:29:03.618Z,99915.16
2023-09-15T09:34:06.885Z,99966.66
2023-09-15T09:39:11.095Z,100042.13
2023-09-15T09:44:14.531Z,100091.38
2023-09-15T09:49:17.308Z,100186.38
2023-09-15T09:54:22.188Z,100283.13
2023-09-15T09:59:24.977Z,100301.81
2023-09-15T10:04:27.819Z,100343.00
2023-09-15T10:09:32.387Z,100369.84
2023-09-15T10:14:36.328Z,100374.38
2023-09-15T10:19:40.988Z,100377.44
2023-09-15T10:24:48.588Z,100414.13
2023-09-15T10:29:53.237Z,100455.28
2023-09-15T10:34:55.998Z,100507.69
2023-09-15T10:40:01.471Z,100509.78
2023-09-15T10:45:12.311Z,100525.09
2023-09-15T10:50:16.367Z,100551.84
2023-09-15T10:55:20.519Z,100572.34
2023-09-15T11:00:23.416Z,100584.91
2023-09-15T11:05:28.007Z,100611.53
2023-09-15T11:10:33.236Z,100623.41
2023-09-15T11:15:37.013Z,100730.88
2023-09-15T11:20:40.092Z,100579.97
2023-09-15T11:25:44.202Z,100606.09
2023-09-15T11:30:47.642Z,100624.78
2023-09-15T11:35:50.791Z,100620.31
2023-09-15T11:40:55.193Z,100606.25
2023-09-15T11:45:58.151Z,100588.47
2023-09-15T11:51:00.960Z,100601.78
2023-09-15T11:56:05.342Z,100607.25
2023-09-15T12:01:08.161Z,100600.16
2023-09-15T12:06:11.331Z,100621.59
2023-09-15T12:11:15.973Z,100632.31
2023-09-15T12:16:21.180Z,100639.50
2023-09-15T12:21:26.285Z,100649.31
2023-09-15T12:26:30.567Z,100650.22
2023-09-15T12:31:40.275Z,100667.19
2023-09-15T12:36:43.173Z,100651.09
2023-09-15T12:41:52.192Z,100664.53
2023-09-15T12:46:58.423Z,100670.78
2023-09-15T12:52:01.204Z,100688.72
2023-09-15T12:57:05.878Z,100692.28
2023-09-15T13:02:08.998Z,100690.44
2023-09-15T13:07:12.294Z,100695.81
2023-09-15T13:12:16.448Z,100690.47
2023-09-15T13:17:19.235Z,100686.91
2023-09-15T13:22:23.499Z,100694.97
2023-09-15T13:27:29.542Z,100688.66
2023-09-15T13:32:32.494Z,100691.31
2023-09-15T13:37:37.645Z,100699.41
2023-09-15T13:42:41.816Z,100723.59
2023-09-15T13:47:44.630Z,100733.44
2023-09-15T13:52:49.630Z,100732.47
2023-09-15T13:57:54.931Z,100725.34
2023-09-15T14:02:57.886Z,100733.47
2023-09-15T14:08:00.659Z,100726.19
2023-09-15T14:13:05.180Z,100719.06
2023-09-15T14:18:08.205Z,100712.81
2023-09-15T14:23:11.084Z,100711.88
2023-09-15T14:28:15.257Z,100699.41
2023-09-15T14:33:18.063Z,100704.78
2023-09-15T14:38:20.863Z,100687.69
2023-09-15T14:43:25.017Z,100692.13
2023-09-15T14:48:27.877Z,100682.25
2023-09-15T14:53:30.696Z,100679.59
2023-09-15T14:58:34.817Z,100684.03
2023-09-15T15:03:37.651Z,100675.09
2023-09-15T15:08:40.956Z,100684.06
2023-09-15T15:13:45.102Z,100683.19
2023-09-15T15:18:48.345Z,100686.75
2023-09-15T15:23:51.486Z,100682.31
2023-09-15T15:28:56.621Z,100680.50
2023-09-15T15:33:59.415Z,100672.44
2023-09-15T15:39:05.636Z,100669.84
2023-09-15T15:44:10.610Z,100659.94
2023-09-15T15:49:13.377Z,100668.00
2023-09-15T15:54:16.297Z,100655.44
2023-09-15T15:59:20.400Z,100667.16
2023-09-15T16:04:23.152Z,100660.88
2023-09-15T16:09:26.065Z,100647.50
2023-09-15T16:14:30.192Z,100643.03
2023-09-15T16:19:32.961Z,100640.38
2023-09-15T16:24:35.800Z,100635.94
2023-09-15T16:29:39.939Z,100631.44
2023-09-15T16:34:43.786Z,100640.41
2023-09-15T16:39:46.611Z,100628.78
2023-09-15T16:44:50.729Z,100639.50
2023-09-15T16:49:53.496Z,100636.84
2023-09-15T16:54:56.361Z,100628.75
2023-09-15T17:00:01.087Z,100630.53
2023-09-15T17:05:03.859Z,100631.38
2023-09-15T17:10:09.337Z,100636.75
2023-09-15T17:15:14.307Z,100631.38
2023-09-15T17:20:17.301Z,100629.53
2023-09-15T17:25:20.215Z,100630.41
2023-09-15T17:30:24.894Z,100629.44
2023-09-15T17:35:28.582Z,100637.44
2023-09-15T17:40:32.415Z,100640.06
2023-09-15T17:45:36.585Z,100642.63
2023-09-15T17:50:39.526Z,100647.88
2023-09-15T17:55:42.327Z,100646.00
2023-09-15T18:00:46.464Z,100655.69
2023-09-15T18:05:49.360Z,100652.09
2023-09-15T18:10:52.136Z,100648.41
2023-09-15T18:15:56.419Z,100643.88
2023-09-15T18:20:59.341Z,100637.59
2023-09-15T18:26:02.123Z,100643.72
2023-09-15T18:31:06.257Z,100639.22
2023-09-15T18:36:09.268Z,100621.34
2023-09-15T18:41:12.797Z,100605.16
2023-09-15T18:46:17.053Z,100615.69
2023-09-15T18:51:20.453Z,100608.56
2023-09-15T18:56:23.223Z,100609.47
2023-09-15T19:01:27.690Z,100610.25
2023-09-15T19:06:31.184Z,100598.34
2023-09-15T19:11:34.028Z,100593.00
2023-09-15T19:16:38.223Z,100586.66
2023-09-15T19:21:41.273Z,100577.66
2023-09-15T19:26:44.167Z,100565.88
2023-09-15T19:31:48.272Z,100562.13
2023-09-15T19:36:51.110Z,100549.72
2023-09-15T19:41:53.925Z,100539.78
2023-09-15T19:46:58.665Z,100526.50
2023-09-15T19:52:01.492Z,100522.81
2023-09-15T19:57:04.666Z,100520.75
2023-09-15T20:02:08.887Z,100509.13
2023-09-15T20:07:12.268Z,100496.72
2023-09-15T20:12:15.066Z,100486.84
2023-09-15T20:17:19.213Z,100485.84
2023-09-15T20:22:23.095Z,100467.97
2023-09-15T20:27:26.835Z,100458.94
2023-09-15T20:32:31.212Z,100450.75
2023-09-15T20:37:34.133Z,100426.63
2023-09-15T20:42:37.234Z,100406.88
2023-09-15T20:47:41.432Z,100374.06
2023-09-15T20:52:44.203Z,100356.34
2023-09-15T20:57:47.059Z,100347.53
2023-09-15T21:02:51.351Z,100333.09
2023-09-15T21:07:54.972Z,100316.00
2023-09-15T21:12:58.506Z,100281.28
2023-09-15T21:18:03.342Z,100264.44
2023-09-15T21:23:06.142Z,100238.66
2023-09-15T21:28:08.948Z,100226.94
2023-09-15T21:33:14.324Z,100193.22
2023-09-15T21:38:18.000Z,100175.44
2023-09-15T21:43:21.409Z,100159.47
2023-09-15T21:48:25.754Z,100151.25
2023-09-15T21:53:28.641Z,100140.72
2023-09-15T21:58:31.484Z,100121.19
2023-09-15T22:03:35.768Z,100116.66
2023-09-15T22:08:38.727Z,100123.63
2023-09-15T22:13:44.066Z,100098.84
2023-09-15T22:18:48.780Z,100098.75
2023-09-15T22:23:52.763Z,100082.75
2023-09-15T22:28:55.732Z,100075.63
2023-09-15T22:33:59.881Z,100075.59
2023-09-15T22:39:04.767Z,100065.75
2023-09-15T22:44:07.755Z,100054.16
2023-09-15T22:49:13.405Z,100034.53
2023-09-15T22:54:16.254Z,100024.63
2023-09-15T22:59:19.058Z,100016.53
2023-09-15T23:04:23.189Z,99996.25
2023-09-15T23:09:25.967Z,99995.28
2023-09-15T23:14:28.901Z,99994.50
2023-09-15T23:19:33.066Z,99986.53
2023-09-15T23:24:35.820Z,99981.19
2023-09-15T23:29:38.604Z,99972.22
2023-09-15T23:34:43.496Z,99960.53
2023-09-15T23:39:47.360Z,99942.75
2023-09-15T23:44:50.162Z,99947.28
2023-09-15T23:49:54.568Z,99946.31
2023-09-15T23:54:58.011Z,99928.66
